Eldridge, Iowa
Current Conditions -  °F | °C
As of 1:52 AM on Saturday 29 Nov 2014 (Local Time) from KDVN Reporting Station
Clear Clear  
Wind Chill: 26°   Ceiling: Unl
Heat Index: 34°   Visibility: 10mi
Dew Point: 29°   Wind: 10mph
Humidity: 82%   Direction: 150°SSE
Pressure: 29.71"   Gusts: NA
Location:  41.66°N, 90.58°W
Report Text: KDVN 290752Z AUTO 15009KT 10SM CLR 01/M02 A2971 RMK AO2 SLP068 T00111017 FZRANO
Loading
Personal Weather Stations






























Interactive Weather Map New forecast layout! Learn more

10-Day Weather Forecast

Advertisements
Track Severe Weather on mobile